createdAt,value
2017-03-20T00:00:22.772Z,997.63
2017-03-20T00:01:03.357Z,997.58
2017-03-20T00:01:43.976Z,997.57
2017-03-20T00:02:24.647Z,997.63
2017-03-20T00:03:05.247Z,997.68
2017-03-20T00:03:45.840Z,997.64
2017-03-20T00:04:26.495Z,997.67
2017-03-20T00:05:07.080Z,997.69
2017-03-20T00:05:47.755Z,997.68
2017-03-20T00:06:28.362Z,997.73
2017-03-20T00:07:09.017Z,997.67
2017-03-20T00:07:49.519Z,997.68
2017-03-20T00:08:30.098Z,997.69
2017-03-20T00:09:10.655Z,997.75
2017-03-20T00:09:51.270Z,997.75
2017-03-20T00:10:31.850Z,997.77
2017-03-20T00:11:12.412Z,997.72
2017-03-20T00:11:52.990Z,997.81
2017-03-20T00:12:33.556Z,997.75
2017-03-20T00:13:14.140Z,997.82
2017-03-20T00:13:54.780Z,997.82
2017-03-20T00:14:35.382Z,997.81
2017-03-20T00:15:15.967Z,997.78
2017-03-20T00:15:56.561Z,997.82
2017-03-20T00:16:37.115Z,997.79
2017-03-20T00:17:17.701Z,997.79
2017-03-20T00:17:58.295Z,997.84
2017-03-20T00:18:38.877Z,997.83
2017-03-20T00:19:19.448Z,997.89
2017-03-20T00:20:00.045Z,997.82
2017-03-20T00:20:40.605Z,997.77
2017-03-20T00:21:21.189Z,997.86
2017-03-20T00:22:01.818Z,997.81
2017-03-20T00:22:42.399Z,997.88
2017-03-20T00:23:23.007Z,997.82
2017-03-20T00:24:03.597Z,997.88
2017-03-20T00:24:44.193Z,997.89
2017-03-20T00:25:24.772Z,997.84
2017-03-20T00:26:05.360Z,997.86
2017-03-20T00:26:45.949Z,997.89
2017-03-20T00:27:26.540Z,997.85
2017-03-20T00:28:07.130Z,997.84
2017-03-20T00:28:47.712Z,997.93
2017-03-20T00:29:28.285Z,997.81
2017-03-20T00:30:08.853Z,997.85
2017-03-20T00:30:49.432Z,997.88
2017-03-20T00:31:30.048Z,997.89
2017-03-20T00:32:10.640Z,997.89
2017-03-20T00:32:51.205Z,997.9
2017-03-20T00:33:31.780Z,997.91
2017-03-20T00:34:12.342Z,997.89
2017-03-20T00:34:52.922Z,997.91
2017-03-20T00:35:33.514Z,997.91
2017-03-20T00:36:14.098Z,997.91
2017-03-20T00:36:54.677Z,997.99
2017-03-20T00:37:35.263Z,997.93
2017-03-20T00:38:15.852Z,997.86
2017-03-20T00:38:56.438Z,997.87
2017-03-20T00:39:37.012Z,997.92
2017-03-20T00:40:17.596Z,997.94
2017-03-20T00:40:58.167Z,997.88
2017-03-20T00:41:38.771Z,997.93
2017-03-20T00:42:19.370Z,997.96
2017-03-20T00:42:59.952Z,997.92
2017-03-20T00:43:40.573Z,997.92
2017-03-20T00:44:21.149Z,997.95
2017-03-20T00:45:01.727Z,998.01
2017-03-20T00:45:42.377Z,998
2017-03-20T00:46:22.918Z,998.02
2017-03-20T00:47:03.568Z,998.01
2017-03-20T00:47:44.118Z,997.97
2017-03-20T00:48:24.715Z,998.04
2017-03-20T00:49:05.299Z,998.06
2017-03-20T00:49:45.864Z,998.01
2017-03-20T00:50:26.450Z,997.95
2017-03-20T00:51:07.041Z,998.03
2017-03-20T00:51:47.617Z,998.04
2017-03-20T00:52:28.205Z,998.04
2017-03-20T00:53:08.798Z,998.03
2017-03-20T00:53:49.376Z,998.06
2017-03-20T00:54:29.967Z,998.05
2017-03-20T00:55:10.552Z,998.05
2017-03-20T00:55:51.141Z,998.06
2017-03-20T00:56:31.777Z,998.01
2017-03-20T00:57:12.361Z,998.05
2017-03-20T00:57:52.946Z,998.07
2017-03-20T00:58:33.536Z,998.09
2017-03-20T00:59:14.107Z,998.04
2017-03-20T00:59:54.715Z,998.03
2017-03-20T01:00:35.321Z,998.1
2017-03-20T01:01:15.886Z,998.08
2017-03-20T01:01:56.481Z,998.11
2017-03-20T01:02:37.057Z,998.1
2017-03-20T01:03:17.684Z,998.18
2017-03-20T01:03:58.253Z,998.13
2017-03-20T01:04:38.828Z,998.22
2017-03-20T01:05:19.413Z,998.12
2017-03-20T01:05:59.997Z,998.12
2017-03-20T01:06:40.567Z,998.14
2017-03-20T01:07:21.153Z,998.14
2017-03-20T01:08:01.725Z,998.09
2017-03-20T01:08:42.297Z,998.08
2017-03-20T01:09:22.916Z,998.16
2017-03-20T01:10:03.490Z,998.1
2017-03-20T01:10:44.066Z,998.14
2017-03-20T01:11:24.665Z,998.16
2017-03-20T01:12:05.239Z,998.13
2017-03-20T01:12:45.832Z,998.12
2017-03-20T01:13:26.430Z,998.11
2017-03-20T01:14:07.000Z,998.08
2017-03-20T01:14:47.596Z,998.08
2017-03-20T01:15:28.176Z,998.1
2017-03-20T01:16:08.755Z,998.14
2017-03-20T01:16:49.331Z,998.11
2017-03-20T01:17:29.954Z,998.16
2017-03-20T01:18:10.515Z,998.11
2017-03-20T01:18:51.101Z,998.15
2017-03-20T01:19:31.686Z,998.12
2017-03-20T01:20:12.265Z,998.16
2017-03-20T01:20:52.869Z,998.18
2017-03-20T01:21:33.463Z,998.17
2017-03-20T01:22:14.043Z,998.2
2017-03-20T01:22:54.677Z,998.18
2017-03-20T01:23:35.438Z,998.14
2017-03-20T01:24:15.970Z,998.16
2017-03-20T01:24:56.543Z,998.17
2017-03-20T01:25:37.135Z,998.15
2017-03-20T01:26:17.776Z,998.22
2017-03-20T01:26:58.357Z,998.15
2017-03-20T01:27:38.972Z,998.09
2017-03-20T01:28:19.552Z,998.16
2017-03-20T01:29:00.147Z,998.12
2017-03-20T01:29:40.741Z,998.16
2017-03-20T01:30:21.372Z,998.18
2017-03-20T01:31:01.974Z,998.18
2017-03-20T01:31:42.564Z,998.17
2017-03-20T01:32:23.160Z,998.13
2017-03-20T01:33:03.761Z,998.19
2017-03-20T01:33:44.345Z,998.21
2017-03-20T01:34:24.921Z,998.19
2017-03-20T01:35:05.508Z,998.24
2017-03-20T01:35:46.080Z,998.22
2017-03-20T01:36:26.652Z,998.22
2017-03-20T01:37:07.221Z,998.24
2017-03-20T01:37:47.820Z,998.22
2017-03-20T01:38:28.396Z,998.24
2017-03-20T01:39:08.994Z,998.25
2017-03-20T01:39:49.567Z,998.25
2017-03-20T01:40:30.138Z,998.22
2017-03-20T01:41:10.729Z,998.26
2017-03-20T01:41:51.320Z,998.25
2017-03-20T01:42:31.965Z,998.27
2017-03-20T01:43:12.550Z,998.26
2017-03-20T01:43:53.135Z,998.26
2017-03-20T01:44:33.687Z,998.3
2017-03-20T01:45:14.277Z,998.27
2017-03-20T01:45:54.847Z,998.31
2017-03-20T01:46:35.441Z,998.39
2017-03-20T01:47:16.034Z,998.34
2017-03-20T01:47:56.605Z,998.35
2017-03-20T01:48:37.232Z,998.35
2017-03-20T01:49:17.824Z,998.36
2017-03-20T01:49:58.392Z,998.4
2017-03-20T01:50:38.956Z,998.35
2017-03-20T01:51:19.530Z,998.3
2017-03-20T01:52:00.106Z,998.35
2017-03-20T01:52:40.707Z,998.27
2017-03-20T01:53:21.293Z,998.33
2017-03-20T01:54:01.859Z,998.34
2017-03-20T01:54:42.460Z,998.32
2017-03-20T01:55:23.061Z,998.35
2017-03-20T01:56:03.663Z,998.38
2017-03-20T01:56:44.275Z,998.32
2017-03-20T01:57:24.867Z,998.41
2017-03-20T01:58:05.467Z,998.4
2017-03-20T01:58:46.067Z,998.39
2017-03-20T01:59:26.623Z,998.35
2017-03-20T02:00:07.224Z,998.35
2017-03-20T02:00:47.811Z,998.35
2017-03-20T02:01:28.433Z,998.35
2017-03-20T02:02:09.028Z,998.36
2017-03-20T02:02:49.625Z,998.35
2017-03-20T02:03:30.198Z,998.23
2017-03-20T02:04:10.771Z,998.29
2017-03-20T02:04:51.342Z,998.31
2017-03-20T02:05:31.922Z,998.35
2017-03-20T02:06:12.525Z,998.32
2017-03-20T02:06:53.085Z,998.32
2017-03-20T02:07:33.683Z,998.32
2017-03-20T02:08:14.269Z,998.28
2017-03-20T02:08:54.850Z,998.29
2017-03-20T02:09:35.530Z,998.33
2017-03-20T02:10:16.109Z,998.38
2017-03-20T02:10:56.727Z,998.45
2017-03-20T02:11:37.342Z,998.38
2017-03-20T02:12:17.930Z,998.39
2017-03-20T02:12:58.575Z,998.37
2017-03-20T02:13:39.203Z,998.37
2017-03-20T02:14:19.805Z,998.36
2017-03-20T02:15:00.404Z,998.37
2017-03-20T02:15:41.001Z,998.33
2017-03-20T02:16:21.564Z,998.38
2017-03-20T02:17:02.160Z,998.4
2017-03-20T02:17:42.784Z,998.34
2017-03-20T02:18:23.370Z,998.34
2017-03-20T02:19:04.065Z,998.32
2017-03-20T02:19:44.673Z,998.34
2017-03-20T02:20:25.218Z,998.34
2017-03-20T02:21:05.834Z,998.31
2017-03-20T02:21:46.483Z,998.25
2017-03-20T02:22:27.068Z,998.27
2017-03-20T02:23:07.626Z,998.3
2017-03-20T02:23:48.234Z,998.34
2017-03-20T02:24:28.838Z,998.33
2017-03-20T02:25:09.410Z,998.28
2017-03-20T02:25:49.978Z,998.35
2017-03-20T02:26:30.613Z,998.35
2017-03-20T02:27:11.286Z,998.36
2017-03-20T02:27:51.870Z,998.42
2017-03-20T02:28:32.430Z,998.42
2017-03-20T02:29:12.990Z,998.37
2017-03-20T02:29:53.582Z,998.38
2017-03-20T02:30:34.199Z,998.36
2017-03-20T02:31:14.774Z,998.33
2017-03-20T02:31:55.337Z,998.32
2017-03-20T02:32:35.940Z,998.34
2017-03-20T02:33:16.528Z,998.34
2017-03-20T02:33:57.215Z,998.33
2017-03-20T02:34:37.834Z,998.41
2017-03-20T02:35:18.471Z,998.41
2017-03-20T02:35:59.091Z,998.43
2017-03-20T02:36:39.755Z,998.45
2017-03-20T02:37:20.403Z,998.42
2017-03-20T02:38:01.098Z,998.49
2017-03-20T02:38:41.654Z,998.47
2017-03-20T02:39:22.250Z,998.48
2017-03-20T02:40:02.825Z,998.49
2017-03-20T02:40:43.405Z,998.49
2017-03-20T02:41:23.995Z,998.56
2017-03-20T02:42:04.581Z,998.55
2017-03-20T02:42:45.157Z,998.54
2017-03-20T02:43:25.765Z,998.55
2017-03-20T02:44:06.322Z,998.54
2017-03-20T02:44:46.902Z,998.55
2017-03-20T02:45:27.496Z,998.56
2017-03-20T02:46:08.111Z,998.56
2017-03-20T02:46:48.678Z,998.57
2017-03-20T02:47:29.255Z,998.61
2017-03-20T02:48:09.837Z,998.63
2017-03-20T02:48:50.421Z,998.64
2017-03-20T02:49:30.988Z,998.64
2017-03-20T02:50:11.588Z,998.71
2017-03-20T02:50:52.149Z,998.67
2017-03-20T02:51:32.810Z,998.75
2017-03-20T02:52:13.327Z,998.74
2017-03-20T02:52:53.900Z,998.73
2017-03-20T02:53:34.475Z,998.74
2017-03-20T02:54:15.050Z,998.75
2017-03-20T02:54:55.635Z,998.72
2017-03-20T02:55:36.210Z,998.7
2017-03-20T02:56:16.789Z,998.75
2017-03-20T02:56:57.381Z,998.77
2017-03-20T02:57:37.953Z,998.83
2017-03-20T02:58:18.539Z,998.78
2017-03-20T02:58:59.128Z,998.77
2017-03-20T02:59:39.714Z,998.81
2017-03-20T03:00:20.288Z,998.7
2017-03-20T03:01:00.893Z,998.8
2017-03-20T03:01:41.456Z,998.89
2017-03-20T03:02:22.047Z,998.85
2017-03-20T03:03:02.688Z,998.85
2017-03-20T03:03:43.358Z,998.83
2017-03-20T03:04:23.899Z,998.77
2017-03-20T03:05:04.495Z,998.76
2017-03-20T03:05:45.063Z,998.77
2017-03-20T03:06:25.674Z,998.73
2017-03-20T03:07:06.314Z,998.78
2017-03-20T03:07:46.889Z,998.78
2017-03-20T03:08:27.533Z,998.79
2017-03-20T03:09:08.165Z,998.83
2017-03-20T03:09:48.768Z,998.8
2017-03-20T03:10:29.467Z,998.85
2017-03-20T03:11:10.040Z,998.86
2017-03-20T03:11:50.636Z,998.87
2017-03-20T03:12:31.253Z,998.82
2017-03-20T03:13:11.840Z,998.87
2017-03-20T03:13:52.438Z,998.89
2017-03-20T03:14:33.058Z,998.91
2017-03-20T03:15:13.637Z,998.99
2017-03-20T03:15:54.219Z,998.88
2017-03-20T03:16:34.786Z,998.91
2017-03-20T03:17:15.352Z,998.99
2017-03-20T03:17:55.941Z,999.02
2017-03-20T03:18:36.542Z,999.06
2017-03-20T03:19:17.107Z,999.08
2017-03-20T03:19:57.710Z,999.08
2017-03-20T03:20:38.334Z,999.08
2017-03-20T03:21:18.916Z,999.06
2017-03-20T03:21:59.520Z,999.1
2017-03-20T03:22:40.059Z,999.11
2017-03-20T03:23:20.676Z,999.08
2017-03-20T03:24:01.307Z,999.14
2017-03-20T03:24:41.886Z,999.14
2017-03-20T03:25:22.462Z,999.12
2017-03-20T03:26:03.085Z,999.19
2017-03-20T03:26:43.663Z,999.13
2017-03-20T03:27:24.245Z,999.12
2017-03-20T03:28:04.814Z,999.13
2017-03-20T03:28:45.386Z,999.19
2017-03-20T03:29:25.974Z,999.23
2017-03-20T03:30:06.552Z,999.21
2017-03-20T03:30:47.188Z,999.28
2017-03-20T03:31:27.813Z,999.25
2017-03-20T03:32:08.386Z,999.25
2017-03-20T03:32:48.984Z,999.26
2017-03-20T03:33:29.583Z,999.31
2017-03-20T03:34:10.189Z,999.31
2017-03-20T03:34:50.769Z,999.31
2017-03-20T03:35:31.370Z,999.3
2017-03-20T03:36:11.959Z,999.35
2017-03-20T03:36:52.536Z,999.35
2017-03-20T03:37:33.123Z,999.37
2017-03-20T03:38:13.721Z,999.39
2017-03-20T03:38:54.281Z,999.4
2017-03-20T03:39:34.862Z,999.38
2017-03-20T03:40:15.436Z,999.32
2017-03-20T03:40:56.025Z,999.37
2017-03-20T03:41:36.626Z,999.4
2017-03-20T03:42:17.251Z,999.44
2017-03-20T03:42:57.837Z,999.41
2017-03-20T03:43:38.413Z,999.43
2017-03-20T03:44:19.014Z,999.42
2017-03-20T03:44:59.597Z,999.49
2017-03-20T03:45:40.167Z,999.49
2017-03-20T03:46:20.726Z,999.46
2017-03-20T03:47:01.312Z,999.43
2017-03-20T03:47:41.891Z,999.51
2017-03-20T03:48:22.471Z,999.44
2017-03-20T03:49:03.096Z,999.55
2017-03-20T03:49:43.709Z,999.48
2017-03-20T03:50:24.279Z,999.5
2017-03-20T03:51:04.861Z,999.46
2017-03-20T03:51:45.455Z,999.53
2017-03-20T03:52:26.066Z,999.45
2017-03-20T03:53:06.657Z,999.53
2017-03-20T03:53:47.251Z,999.46
2017-03-20T03:54:27.827Z,999.51
2017-03-20T03:55:08.424Z,999.52
2017-03-20T03:55:49.114Z,999.51
2017-03-20T03:56:29.630Z,999.57
2017-03-20T03:57:10.207Z,999.54
2017-03-20T03:57:50.869Z,999.55
2017-03-20T03:58:31.415Z,999.62
2017-03-20T03:59:12.024Z,999.48
2017-03-20T03:59:52.616Z,999.58
2017-03-20T04:00:33.216Z,999.63
2017-03-20T04:01:13.785Z,999.57
2017-03-20T04:01:54.433Z,999.59
2017-03-20T04:02:35.013Z,999.61
2017-03-20T04:03:15.626Z,999.65
2017-03-20T04:03:56.221Z,999.68
2017-03-20T04:04:36.792Z,999.66
2017-03-20T04:05:17.393Z,999.67
2017-03-20T04:05:58.013Z,999.66
2017-03-20T04:06:38.584Z,999.68
2017-03-20T04:07:19.145Z,999.69
2017-03-20T04:07:59.732Z,999.68
2017-03-20T04:08:40.306Z,999.7
2017-03-20T04:09:20.874Z,999.72
2017-03-20T04:10:01.514Z,999.61
2017-03-20T04:10:42.133Z,999.66
2017-03-20T04:11:22.732Z,999.65
2017-03-20T04:12:03.301Z,999.61
2017-03-20T04:12:43.923Z,999.61
2017-03-20T04:13:24.486Z,999.65
2017-03-20T04:14:05.107Z,999.67
2017-03-20T04:14:45.675Z,999.72
2017-03-20T04:15:26.274Z,999.69
2017-03-20T04:16:06.945Z,999.67
2017-03-20T04:16:47.468Z,999.7
2017-03-20T04:17:28.043Z,999.66
2017-03-20T04:18:08.648Z,999.68
2017-03-20T04:18:49.244Z,999.67
2017-03-20T04:19:29.815Z,999.75
2017-03-20T04:20:10.394Z,999.75
2017-03-20T04:20:50.970Z,999.74
2017-03-20T04:21:31.530Z,999.74
2017-03-20T04:22:12.100Z,999.75
2017-03-20T04:22:52.689Z,999.76
2017-03-20T04:23:33.291Z,999.72
2017-03-20T04:24:13.900Z,999.77
2017-03-20T04:24:54.515Z,999.76
2017-03-20T04:25:35.145Z,999.81
2017-03-20T04:26:15.739Z,999.8
2017-03-20T04:26:56.356Z,999.83
2017-03-20T04:27:36.981Z,999.86
2017-03-20T04:28:17.597Z,999.85
2017-03-20T04:28:58.264Z,999.84
2017-03-20T04:29:38.859Z,999.89
2017-03-20T04:30:19.458Z,999.83
2017-03-20T04:31:00.084Z,999.86
2017-03-20T04:31:40.675Z,999.85
2017-03-20T04:32:21.299Z,999.82
2017-03-20T04:33:01.895Z,999.89
2017-03-20T04:33:42.549Z,999.86
2017-03-20T04:34:23.181Z,999.86
2017-03-20T04:35:03.784Z,999.92
2017-03-20T04:35:44.385Z,999.87
2017-03-20T04:36:24.962Z,999.87
2017-03-20T04:37:05.549Z,999.9
2017-03-20T04:37:46.141Z,999.9
2017-03-20T04:38:26.739Z,999.89
2017-03-20T04:39:07.364Z,999.88
2017-03-20T04:39:47.923Z,999.9
2017-03-20T04:40:28.571Z,999.89
2017-03-20T04:41:09.199Z,999.84
2017-03-20T04:41:49.820Z,999.87
2017-03-20T04:42:30.429Z,999.9
2017-03-20T04:43:11.027Z,999.83
2017-03-20T04:43:51.574Z,999.86
2017-03-20T04:44:32.159Z,999.91
2017-03-20T04:45:12.796Z,999.86
2017-03-20T04:45:53.373Z,999.91
2017-03-20T04:46:33.992Z,999.88
2017-03-20T04:47:14.580Z,999.9
2017-03-20T04:47:55.174Z,999.93
2017-03-20T04:48:35.784Z,999.93
2017-03-20T04:49:16.368Z,999.93
2017-03-20T04:49:57.010Z,999.94
2017-03-20T04:50:37.571Z,999.93
2017-03-20T04:51:18.140Z,999.95
2017-03-20T04:51:58.714Z,999.95
2017-03-20T04:52:39.349Z,999.95
2017-03-20T04:53:19.945Z,999.96
2017-03-20T04:54:00.575Z,999.95
2017-03-20T04:54:41.208Z,999.98
2017-03-20T04:55:21.856Z,999.96
2017-03-20T04:56:02.459Z,999.95
2017-03-20T04:56:43.063Z,999.99
2017-03-20T04:57:23.652Z,999.97
2017-03-20T04:58:04.277Z,999.94
2017-03-20T04:58:44.940Z,999.98
2017-03-20T04:59:25.459Z,999.96
2017-03-20T05:00:06.030Z,999.96
2017-03-20T05:00:46.648Z,999.97
2017-03-20T05:01:27.219Z,999.99
2017-03-20T05:02:07.842Z,1000.05
2017-03-20T05:02:48.413Z,1000.05
2017-03-20T05:03:29.050Z,1000.04
2017-03-20T05:04:09.624Z,1000.03
2017-03-20T05:04:50.232Z,1000.07
2017-03-20T05:05:30.811Z,1000.08
2017-03-20T05:06:11.395Z,1000.08
2017-03-20T05:06:51.973Z,1000.05
2017-03-20T05:07:32.533Z,1000.06
2017-03-20T05:08:13.145Z,1000.06
2017-03-20T05:08:53.740Z,1000.08
2017-03-20T05:09:34.348Z,1000.06
2017-03-20T05:10:14.942Z,1000.09
2017-03-20T05:10:55.610Z,1000.1
2017-03-20T05:11:36.198Z,1000.11
2017-03-20T05:12:16.767Z,1000.07
2017-03-20T05:12:57.428Z,1000.08
2017-03-20T05:13:38.077Z,1000.07
2017-03-20T05:14:18.634Z,1000.06
2017-03-20T05:14:59.214Z,1000.09
2017-03-20T05:15:39.807Z,1000.06
2017-03-20T05:16:20.381Z,1000.1
2017-03-20T05:17:00.959Z,1000.07
2017-03-20T05:17:41.549Z,1000.07
2017-03-20T05:18:22.133Z,1000.08
2017-03-20T05:19:02.720Z,1000.06
2017-03-20T05:19:43.323Z,1000.03
2017-03-20T05:20:23.929Z,1000.09
2017-03-20T05:21:04.507Z,1000.13
2017-03-20T05:21:45.090Z,1000.08
2017-03-20T05:22:25.741Z,1000.15
2017-03-20T05:23:06.325Z,1000.17
2017-03-20T05:23:46.933Z,1000.2
2017-03-20T05:24:27.527Z,1000.24
2017-03-20T05:25:08.093Z,1000.23
2017-03-20T05:25:48.733Z,1000.18
2017-03-20T05:26:29.314Z,1000.3
2017-03-20T05:27:09.891Z,1000.23
2017-03-20T05:27:50.475Z,1000.2
2017-03-20T05:28:31.041Z,1000.27
2017-03-20T05:29:11.621Z,1000.3
2017-03-20T05:29:52.209Z,1000.32
2017-03-20T05:30:32.840Z,1000.29
2017-03-20T05:31:13.381Z,1000.33
2017-03-20T05:31:53.974Z,1000.32
2017-03-20T05:32:34.575Z,1000.32
2017-03-20T05:33:15.394Z,1000.28
2017-03-20T05:33:55.992Z,1000.27
2017-03-20T05:34:36.564Z,1000.29
2017-03-20T05:35:17.155Z,1000.34
2017-03-20T05:35:57.745Z,1000.35
2017-03-20T05:36:38.350Z,1000.35
2017-03-20T05:37:18.934Z,1000.36
2017-03-20T05:37:59.511Z,1000.35
2017-03-20T05:38:40.106Z,1000.38
2017-03-20T05:39:20.695Z,1000.41
2017-03-20T05:40:01.302Z,1000.4
2017-03-20T05:40:41.903Z,1000.4
2017-03-20T05:41:22.487Z,1000.4
2017-03-20T05:42:03.057Z,1000.41
2017-03-20T05:42:44.514Z,1000.48
2017-03-20T05:43:25.089Z,1000.46
2017-03-20T05:44:05.673Z,1000.44
2017-03-20T05:44:46.253Z,1000.55
2017-03-20T05:45:26.848Z,1000.47
2017-03-20T05:46:07.397Z,1000.43
2017-03-20T05:46:47.977Z,1000.53
2017-03-20T05:47:28.542Z,1000.46
2017-03-20T05:48:09.114Z,1000.48
2017-03-20T05:48:49.699Z,1000.51
2017-03-20T05:49:30.282Z,1000.5
2017-03-20T05:50:10.900Z,1000.54
2017-03-20T05:50:51.500Z,1000.58
2017-03-20T05:51:32.219Z,1000.58
2017-03-20T05:52:12.959Z,1000.54
2017-03-20T05:52:53.748Z,1000.56
2017-03-20T05:53:34.304Z,1000.52
2017-03-20T05:54:15.007Z,1000.56
2017-03-20T05:54:55.742Z,1000.57
2017-03-20T05:55:36.594Z,1000.53
2017-03-20T05:56:17.233Z,1000.55
2017-03-20T05:56:57.904Z,1000.54
2017-03-20T05:57:38.544Z,1000.49
2017-03-20T05:58:19.195Z,1000.53
2017-03-20T05:59:00.031Z,1000.5
2017-03-20T05:59:40.834Z,1000.53
2017-03-20T06:00:21.450Z,1000.53
2017-03-20T06:01:02.118Z,1000.54
2017-03-20T06:01:42.719Z,1000.54
2017-03-20T06:02:23.425Z,1000.59
2017-03-20T06:03:04.191Z,1000.55
2017-03-20T06:03:45.059Z,1000.55
2017-03-20T06:04:25.680Z,1000.58
2017-03-20T06:05:06.419Z,1000.59
2017-03-20T06:05:47.177Z,1000.64
2017-03-20T06:06:27.968Z,1000.63
2017-03-20T06:07:08.744Z,1000.64
2017-03-20T06:07:49.457Z,1000.6
2017-03-20T06:08:30.051Z,1000.67
2017-03-20T06:09:10.738Z,1000.66
2017-03-20T06:09:51.605Z,1000.65
2017-03-20T06:10:32.482Z,1000.67
2017-03-20T06:11:13.359Z,1000.63
2017-03-20T06:11:54.026Z,1000.65
2017-03-20T06:12:34.681Z,1000.67
2017-03-20T06:13:15.424Z,1000.65
2017-03-20T06:13:56.061Z,1000.64
2017-03-20T06:14:36.726Z,1000.66
2017-03-20T06:15:17.361Z,1000.69
2017-03-20T06:15:58.163Z,1000.65
2017-03-20T06:16:38.988Z,1000.67
2017-03-20T06:17:19.827Z,1000.69
2017-03-20T06:18:00.503Z,1000.67
2017-03-20T06:18:41.251Z,1000.71
2017-03-20T06:19:21.969Z,1000.67
2017-03-20T06:20:02.642Z,1000.65
2017-03-20T06:20:43.403Z,1000.68
2017-03-20T06:21:24.123Z,1000.69
2017-03-20T06:22:05.534Z,1000.72
2017-03-20T06:22:46.192Z,1000.72
2017-03-20T06:23:26.862Z,1000.72
2017-03-20T06:24:07.625Z,1000.71
2017-03-20T06:24:48.348Z,1000.77
2017-03-20T06:25:29.105Z,1000.71
2017-03-20T06:26:09.924Z,1000.73
2017-03-20T06:26:50.526Z,1000.72
2017-03-20T06:27:31.175Z,1000.74
2017-03-20T06:28:11.909Z,1000.74
2017-03-20T06:28:52.662Z,1000.74
2017-03-20T06:29:33.376Z,1000.75
2017-03-20T06:30:14.090Z,1000.74
2017-03-20T06:30:54.829Z,1000.73
2017-03-20T06:31:35.500Z,1000.73
2017-03-20T06:32:16.461Z,1000.69
2017-03-20T06:32:57.238Z,1000.74
2017-03-20T06:33:38.016Z,1000.75
2017-03-20T06:34:18.726Z,1000.81
2017-03-20T06:34:59.404Z,1000.76
2017-03-20T06:35:40.057Z,1000.81
2017-03-20T06:36:20.726Z,1000.77
2017-03-20T06:37:01.420Z,1000.82
2017-03-20T06:37:42.132Z,1000.76
2017-03-20T06:38:22.797Z,1000.75
2017-03-20T06:39:03.430Z,1000.81
2017-03-20T06:39:44.281Z,1000.73
2017-03-20T06:40:24.943Z,1000.78
2017-03-20T06:41:05.614Z,1000.8
2017-03-20T06:41:46.339Z,1000.82
2017-03-20T06:42:27.018Z,1000.85
2017-03-20T06:44:45.061Z,1000.84
2017-03-20T06:45:25.731Z,1000.77
2017-03-20T06:46:06.474Z,1000.78
2017-03-20T06:46:47.155Z,1000.75
2017-03-20T06:47:27.966Z,1000.79
2017-03-20T06:48:08.583Z,1000.79
2017-03-20T06:48:49.282Z,1000.79
2017-03-20T06:49:30.009Z,1000.76
2017-03-20T06:50:10.763Z,1000.8
2017-03-20T06:50:51.393Z,1000.8
2017-03-20T06:51:32.076Z,1000.76
2017-03-20T06:52:12.804Z,1000.75
2017-03-20T06:52:53.455Z,1000.78
2017-03-20T06:53:34.084Z,1000.76
2017-03-20T06:54:14.740Z,1000.78
2017-03-20T06:54:55.407Z,1000.79
2017-03-20T06:55:36.094Z,1000.8
2017-03-20T06:56:16.758Z,1000.82
2017-03-20T06:56:57.412Z,1000.87
2017-03-20T06:57:37.987Z,1000.85
2017-03-20T06:58:18.652Z,1000.85
2017-03-20T06:58:59.328Z,1000.82
2017-03-20T06:59:39.972Z,1000.85
2017-03-20T07:00:20.723Z,1000.82
2017-03-20T07:01:01.438Z,1000.89
2017-03-20T07:01:42.113Z,1000.9
2017-03-20T07:02:22.790Z,1000.91
2017-03-20T07:03:03.476Z,1000.88
2017-03-20T07:03:44.237Z,1000.92
2017-03-20T07:04:24.959Z,1000.88
2017-03-20T07:05:05.698Z,1000.88
2017-03-20T07:05:46.417Z,1000.91
2017-03-20T07:06:27.204Z,1000.92
2017-03-20T07:07:07.907Z,1000.87
2017-03-20T07:07:48.653Z,1000.95
2017-03-20T07:08:29.282Z,1000.88
2017-03-20T07:09:10.032Z,1000.88
2017-03-20T07:09:50.724Z,1000.86
2017-03-20T07:10:31.348Z,1000.93
2017-03-20T07:11:12.050Z,1000.85
2017-03-20T07:11:52.886Z,1000.9
2017-03-20T07:12:33.544Z,1000.87
2017-03-20T07:13:14.185Z,1000.89
2017-03-20T07:13:54.834Z,1000.82
2017-03-20T07:14:35.495Z,1000.9
2017-03-20T07:15:16.233Z,1000.9
2017-03-20T07:15:56.920Z,1000.88
2017-03-20T07:16:37.633Z,1000.9
2017-03-20T07:17:18.347Z,1000.94
2017-03-20T07:17:59.102Z,1000.92
2017-03-20T07:18:39.889Z,1000.95
2017-03-20T07:19:20.589Z,1000.94
2017-03-20T07:20:01.274Z,1000.93
2017-03-20T07:20:42.122Z,1000.92
2017-03-20T07:21:22.933Z,1000.88
2017-03-20T07:22:03.606Z,1000.93
2017-03-20T07:22:44.285Z,1000.9
2017-03-20T07:23:24.974Z,1000.91
2017-03-20T07:24:05.749Z,1000.92
2017-03-20T07:24:46.409Z,1000.9
2017-03-20T07:25:27.064Z,1000.97
2017-03-20T07:26:07.743Z,1000.91
2017-03-20T07:26:48.515Z,1000.91
2017-03-20T07:27:29.170Z,1000.92
2017-03-20T07:28:09.895Z,1000.95
2017-03-20T07:28:50.584Z,1000.96
2017-03-20T07:29:31.213Z,1000.91
2017-03-20T07:30:11.780Z,1000.93
2017-03-20T07:30:52.536Z,1000.96
2017-03-20T07:31:33.185Z,1000.94
2017-03-20T07:32:13.890Z,1000.95
2017-03-20T07:32:54.561Z,1000.89
2017-03-20T07:33:35.328Z,1000.93
2017-03-20T07:34:16.009Z,1000.95
2017-03-20T07:34:56.748Z,1000.98
2017-03-20T07:35:37.536Z,1000.96
2017-03-20T07:36:18.446Z,1000.95
2017-03-20T07:36:59.148Z,1000.99
2017-03-20T07:37:40.102Z,1000.98
2017-03-20T07:39:32.928Z,1000.95
2017-03-20T07:40:13.588Z,1000.95
2017-03-20T07:40:54.505Z,1000.98
2017-03-20T07:41:35.502Z,1000.94
2017-03-20T07:42:16.617Z,1000.94
2017-03-20T07:42:58.204Z,1000.97
2017-03-20T07:43:39.222Z,1000.91
2017-03-20T07:44:19.928Z,1000.97
2017-03-20T07:45:00.971Z,1000.97
2017-03-20T07:45:41.900Z,1000.96
2017-03-20T07:46:22.666Z,1000.94
2017-03-20T07:47:03.470Z,1000.95
2017-03-20T07:47:44.404Z,1000.93
2017-03-20T07:48:25.225Z,1000.92
2017-03-20T07:49:06.262Z,1000.92
2017-03-20T07:49:47.269Z,1000.94
2017-03-20T07:50:28.601Z,1000.98
2017-03-20T07:51:09.429Z,1000.97
2017-03-20T07:51:50.239Z,1000.97
2017-03-20T07:52:30.931Z,1000.98
2017-03-20T07:53:11.616Z,1000.95
2017-03-20T07:53:52.297Z,1000.96
2017-03-20T07:54:33.056Z,1001
2017-03-20T07:55:13.885Z,1000.99
2017-03-20T07:55:54.674Z,1000.99
2017-03-20T07:56:35.516Z,1001.01
2017-03-20T07:57:16.246Z,1001.02
2017-03-20T07:57:56.931Z,1000.97
2017-03-20T07:58:37.619Z,1000.97
2017-03-20T07:59:18.345Z,1001.01
2017-03-20T07:59:59.201Z,1001
2017-03-20T08:00:40.014Z,1000.98
2017-03-20T08:01:23.062Z,1000.96
2017-03-20T08:02:03.714Z,1000.96
2017-03-20T08:02:44.431Z,1000.94
2017-03-20T08:03:25.199Z,1000.91
2017-03-20T08:04:05.867Z,1000.99
2017-03-20T08:04:46.610Z,1000.95
2017-03-20T08:05:27.287Z,1000.98
2017-03-20T08:06:08.104Z,1000.95
2017-03-20T08:06:48.853Z,1000.92
2017-03-20T08:07:29.565Z,1000.96
2017-03-20T08:08:10.283Z,1000.94
2017-03-20T08:08:50.919Z,1000.92
2017-03-20T08:09:31.614Z,1000.91
2017-03-20T08:10:14.537Z,1000.95
2017-03-20T08:10:55.140Z,1000.99
2017-03-20T08:11:35.812Z,1000.96
2017-03-20T08:12:16.495Z,1000.95
2017-03-20T08:12:57.198Z,1000.94
2017-03-20T08:13:37.906Z,1000.98
2017-03-20T08:14:18.592Z,1000.91
2017-03-20T08:14:59.608Z,1000.98
2017-03-20T08:15:40.446Z,1000.98
2017-03-20T08:16:21.012Z,1000.98
2017-03-20T08:17:01.796Z,1000.96
2017-03-20T08:17:43.725Z,1000.96
2017-03-20T08:18:24.406Z,1001
2017-03-20T08:19:05.386Z,1001.03
2017-03-20T08:19:46.714Z,1001.03
2017-03-20T08:20:27.264Z,1001.03
2017-03-20T08:21:07.950Z,1001.03
2017-03-20T08:21:48.701Z,1001.05
2017-03-20T08:22:30.056Z,1001.03
2017-03-20T08:23:10.563Z,1001.02
2017-03-20T08:23:51.189Z,1001.07
2017-03-20T08:24:31.942Z,1001.07
2017-03-20T08:25:12.637Z,1000.99